createdAt,value
2023-03-22T00:00:30.223Z,13.48
2023-03-22T00:02:57.468Z,13.60
2023-03-22T00:05:24.848Z,13.50
2023-03-22T00:07:54.292Z,12.15
2023-03-22T00:10:21.660Z,13.68
2023-03-22T00:12:48.945Z,13.65
2023-03-22T00:15:16.964Z,11.88
2023-03-22T00:17:47.258Z,13.18
2023-03-22T00:20:14.317Z,12.73
2023-03-22T00:22:42.104Z,12.63
2023-03-22T00:25:10.608Z,12.60
2023-03-22T00:27:38.199Z,12.38
2023-03-22T00:30:07.114Z,11.95
2023-03-22T00:32:43.195Z,12.73
2023-03-22T00:35:11.309Z,13.05
2023-03-22T00:37:38.988Z,12.20
2023-03-22T00:40:09.853Z,11.85
2023-03-22T00:42:40.923Z,13.00
2023-03-22T00:45:10.719Z,12.60
2023-03-22T00:47:38.453Z,12.43
2023-03-22T00:50:07.833Z,12.93
2023-03-22T00:52:35.913Z,12.30
2023-03-22T00:55:03.906Z,12.25
2023-03-22T00:57:31.327Z,12.73
2023-03-22T00:59:59.936Z,13.07
2023-03-22T01:02:29.893Z,12.52
2023-03-22T01:04:57.923Z,13.25
2023-03-22T01:07:26.386Z,13.07
2023-03-22T01:09:53.659Z,13.75
2023-03-22T01:12:20.983Z,13.52
2023-03-22T01:14:48.333Z,14.30
2023-03-22T01:17:15.580Z,13.98
2023-03-22T01:19:43.151Z,13.75
2023-03-22T01:22:10.511Z,14.10
2023-03-22T01:24:37.921Z,14.40
2023-03-22T01:27:05.196Z,14.35
2023-03-22T01:29:32.971Z,14.15
2023-03-22T01:32:00.145Z,14.55
2023-03-22T01:34:27.450Z,14.48
2023-03-22T01:36:54.818Z,14.00
2023-03-22T01:39:22.476Z,14.40
2023-03-22T01:41:55.550Z,14.40
2023-03-22T01:44:24.000Z,14.43
2023-03-22T01:46:54.000Z,14.90
2023-03-22T01:49:21.499Z,15.13
2023-03-22T01:51:51.634Z,14.65
2023-03-22T01:54:52.892Z,14.95
2023-03-22T01:57:37.731Z,13.85
2023-03-22T02:00:14.357Z,14.88
2023-03-22T02:02:50.824Z,13.90
2023-03-22T02:05:26.790Z,15.40
2023-03-22T02:07:57.297Z,14.40
2023-03-22T02:10:27.584Z,14.85
2023-03-22T02:13:16.365Z,14.90
2023-03-22T02:16:04.702Z,15.70
2023-03-22T02:19:22.092Z,15.35
2023-03-22T02:22:23.461Z,15.57
2023-03-22T02:25:06.289Z,14.90
2023-03-22T02:27:52.147Z,15.68
2023-03-22T02:31:00.585Z,15.43
2023-03-22T02:34:32.911Z,14.85
2023-03-22T02:37:37.252Z,14.23
2023-03-22T02:40:14.424Z,14.65
2023-03-22T02:43:13.476Z,15.15
2023-03-22T02:45:47.303Z,15.85
2023-03-22T02:48:33.614Z,17.25
2023-03-22T02:51:07.592Z,15.90
2023-03-22T02:53:42.409Z,15.90
2023-03-22T02:56:26.080Z,16.77
2023-03-22T02:59:04.562Z,15.90
2023-03-22T03:01:39.856Z,16.17
2023-03-22T03:04:12.962Z,17.35
2023-03-22T03:06:47.816Z,17.08
2023-03-22T03:09:20.510Z,17.52
2023-03-22T03:11:53.571Z,18.05
2023-03-22T03:14:27.241Z,16.63
2023-03-22T03:17:20.821Z,17.60
2023-03-22T03:20:03.472Z,17.60
2023-03-22T03:22:39.040Z,17.27
2023-03-22T03:25:27.360Z,17.73
2023-03-22T03:28:23.274Z,17.17
2023-03-22T03:31:11.682Z,16.45
2023-03-22T03:33:53.665Z,15.13
2023-03-22T03:36:23.680Z,16.48
2023-03-22T03:38:56.575Z,16.25
2023-03-22T03:41:30.723Z,15.57
2023-03-22T03:43:59.804Z,15.75
2023-03-22T03:46:31.865Z,15.80
2023-03-22T03:49:00.034Z,16.10
2023-03-22T03:51:28.222Z,15.95
2023-03-22T03:53:55.793Z,15.60
2023-03-22T03:56:23.480Z,16.77
2023-03-22T03:58:51.557Z,16.38
2023-03-22T04:01:21.044Z,16.33
2023-03-22T04:04:10.468Z,15.93
2023-03-22T04:07:01.222Z,16.83
2023-03-22T04:09:33.911Z,17.15
2023-03-22T04:12:10.605Z,16.33
2023-03-22T04:14:38.119Z,16.52
2023-03-22T04:17:13.843Z,16.83
2023-03-22T04:19:42.385Z,16.60
2023-03-22T04:22:14.693Z,17.08
2023-03-22T04:24:42.194Z,16.83
2023-03-22T04:27:09.578Z,16.85
2023-03-22T04:29:48.977Z,16.90
2023-03-22T04:32:33.032Z,16.30
2023-03-22T04:35:00.629Z,16.00
2023-03-22T04:37:28.307Z,16.45
2023-03-22T04:40:08.355Z,15.43
2023-03-22T04:42:41.554Z,15.38
2023-03-22T04:45:20.788Z,15.52
2023-03-22T04:47:54.776Z,14.90
2023-03-22T04:50:22.064Z,15.68
2023-03-22T04:52:53.553Z,16.63
2023-03-22T04:55:21.126Z,15.93
2023-03-22T04:57:51.246Z,17.17
2023-03-22T05:00:18.887Z,17.85
2023-03-22T05:02:47.133Z,16.23
2023-03-22T05:05:25.787Z,18.30
2023-03-22T05:07:53.709Z,18.40
2023-03-22T05:10:21.203Z,17.17
2023-03-22T05:12:48.761Z,16.33
2023-03-22T05:17:52.082Z,16.10
2023-03-22T05:20:19.974Z,16.50
2023-03-22T05:22:57.586Z,16.48
2023-03-22T05:25:29.207Z,17.35
2023-03-22T05:28:01.571Z,18.08
2023-03-22T05:30:38.369Z,18.55
2023-03-22T05:33:17.146Z,19.77
2023-03-22T05:35:46.540Z,21.08
2023-03-22T05:38:14.046Z,20.15
2023-03-22T05:40:46.614Z,20.42
2023-03-22T05:43:13.991Z,20.13
2023-03-22T05:45:49.265Z,18.98
2023-03-22T05:48:45.771Z,21.45
2023-03-22T05:51:17.891Z,20.65
2023-03-22T05:53:51.770Z,19.33
2023-03-22T05:56:24.767Z,19.38
2023-03-22T05:59:00.221Z,19.05
2023-03-22T06:01:27.606Z,20.95
2023-03-22T06:04:10.973Z,19.38
2023-03-22T06:06:50.739Z,18.33
2023-03-22T06:09:37.813Z,19.75
2023-03-22T06:12:09.864Z,19.73
2023-03-22T06:14:37.878Z,19.42
2023-03-22T06:17:28.149Z,19.40
2023-03-22T06:19:55.593Z,19.48
2023-03-22T06:22:24.470Z,19.98
2023-03-22T06:24:51.690Z,20.00
2023-03-22T06:27:31.716Z,19.27
2023-03-22T06:29:59.207Z,20.17
2023-03-22T06:32:27.555Z,19.98
2023-03-22T06:34:56.856Z,19.50
2023-03-22T06:37:25.749Z,18.30
2023-03-22T06:39:55.540Z,21.00
2023-03-22T06:42:26.331Z,20.42
2023-03-22T06:45:04.186Z,20.88
2023-03-22T06:47:34.866Z,20.45
2023-03-22T06:50:02.255Z,21.10
2023-03-22T06:52:49.692Z,22.50
2023-03-22T06:55:17.069Z,22.40
2023-03-22T06:57:44.831Z,21.92
2023-03-22T07:00:12.956Z,22.17
2023-03-22T07:02:40.081Z,22.10
2023-03-22T07:05:24.398Z,23.13
2023-03-22T07:07:52.082Z,22.13
2023-03-22T07:10:21.690Z,21.00
2023-03-22T07:12:52.128Z,22.15
2023-03-22T07:15:24.449Z,23.13
2023-03-22T07:17:58.117Z,22.80
2023-03-22T07:20:25.368Z,22.58
2023-03-22T07:22:52.686Z,21.85
2023-03-22T07:25:23.344Z,18.92
2023-03-22T07:28:00.509Z,21.45
2023-03-22T07:30:28.486Z,24.08
2023-03-22T07:32:56.915Z,17.88
2023-03-22T07:35:26.792Z,22.50
2023-03-22T07:37:55.145Z,20.77
2023-03-22T07:40:27.977Z,24.10
2023-03-22T07:42:56.175Z,21.92
2023-03-22T07:45:46.651Z,19.10
2023-03-22T07:48:34.598Z,15.07
2023-03-22T07:51:23.448Z,12.82
2023-03-22T07:53:51.154Z,15.18
2023-03-22T07:56:18.655Z,15.45
2023-03-22T07:58:47.576Z,16.05
2023-03-22T08:01:16.133Z,22.67
2023-03-22T08:03:51.886Z,16.25
2023-03-22T08:06:42.906Z,20.17
2023-03-22T08:09:11.762Z,13.40
2023-03-22T08:11:38.946Z,22.23
2023-03-22T08:14:06.562Z,13.80
2023-03-22T08:16:38.723Z,20.63
2023-03-22T08:19:06.847Z,17.42
2023-03-22T08:21:37.392Z,21.73
2023-03-22T08:24:07.656Z,17.15
2023-03-22T08:26:51.386Z,18.38
2023-03-22T08:29:42.161Z,20.00
2023-03-22T08:32:09.516Z,16.73
2023-03-22T08:34:41.709Z,16.92
2023-03-22T08:37:10.025Z,16.85
2023-03-22T08:39:38.206Z,23.63
2023-03-22T08:42:27.019Z,14.70
2023-03-22T08:44:54.387Z,21.17
2023-03-22T08:47:23.982Z,20.73
2023-03-22T08:49:55.483Z,19.63
2023-03-22T08:52:36.107Z,14.82
2023-03-22T08:55:23.594Z,18.52
2023-03-22T08:58:11.391Z,14.32
2023-03-22T09:01:04.890Z,20.27
2023-03-22T09:03:45.055Z,19.63
2023-03-22T09:06:13.624Z,18.20
2023-03-22T09:08:42.525Z,16.88
2023-03-22T09:11:14.974Z,17.13
2023-03-22T09:13:43.738Z,14.40
2023-03-22T09:16:11.307Z,13.45
2023-03-22T09:18:40.770Z,21.20
2023-03-22T09:21:16.106Z,20.23
2023-03-22T09:24:02.970Z,18.50
2023-03-22T09:26:40.057Z,20.65
2023-03-22T09:29:07.485Z,16.40
2023-03-22T09:31:34.982Z,18.52
2023-03-22T09:34:22.619Z,16.40
2023-03-22T09:36:49.996Z,17.75
2023-03-22T09:39:20.427Z,18.23
2023-03-22T09:41:56.416Z,22.45
2023-03-22T09:44:29.065Z,21.63
2023-03-22T09:47:01.055Z,23.33
2023-03-22T09:49:50.513Z,22.70
2023-03-22T09:52:20.684Z,22.27
2023-03-22T09:54:47.951Z,16.10
2023-03-22T09:57:21.150Z,23.15
2023-03-22T10:00:02.242Z,21.48
2023-03-22T10:02:41.765Z,16.23
2023-03-22T10:05:39.891Z,22.00
2023-03-22T10:08:19.680Z,20.73
2023-03-22T10:10:46.942Z,19.75
2023-03-22T10:13:15.469Z,20.63
2023-03-22T10:15:47.745Z,21.08
2023-03-22T10:18:29.615Z,18.88
2023-03-22T10:21:03.958Z,18.13
2023-03-22T10:23:57.642Z,14.68
2023-03-22T10:26:33.825Z,19.40
2023-03-22T10:29:04.144Z,18.27
2023-03-22T10:31:34.056Z,20.33
2023-03-22T10:34:20.661Z,20.30
2023-03-22T10:36:51.343Z,14.93
2023-03-22T10:39:34.137Z,18.48
2023-03-22T10:42:07.660Z,18.98
2023-03-22T10:44:50.995Z,20.50
2023-03-22T10:47:25.841Z,20.27
2023-03-22T10:52:31.555Z,20.27
2023-03-22T10:55:03.048Z,16.85
2023-03-22T10:57:31.508Z,20.38
2023-03-22T10:59:59.120Z,20.38
2023-03-22T11:02:30.086Z,19.85
2023-03-22T11:05:07.334Z,17.95
2023-03-22T11:07:45.080Z,14.63
2023-03-22T11:10:29.490Z,18.92
2023-03-22T11:13:11.895Z,19.15
2023-03-22T11:15:42.684Z,17.20
2023-03-22T11:18:16.127Z,17.13
2023-03-22T11:20:55.956Z,15.77
2023-03-22T11:23:24.356Z,21.20
2023-03-22T11:25:56.022Z,18.05
2023-03-22T11:28:36.129Z,16.35
2023-03-22T11:31:15.766Z,17.88
2023-03-22T11:34:16.655Z,14.70
2023-03-22T11:39:15.995Z,17.45
2023-03-22T11:41:45.334Z,16.00
2023-03-22T11:44:16.914Z,16.05
2023-03-22T11:46:58.337Z,17.42
2023-03-22T11:49:32.446Z,20.17
2023-03-22T11:52:08.937Z,19.85
2023-03-22T11:54:37.232Z,15.90
2023-03-22T11:57:09.911Z,16.88
2023-03-22T11:59:40.383Z,19.38
2023-03-22T12:02:24.383Z,18.50
2023-03-22T12:04:57.553Z,16.33
2023-03-22T12:07:27.361Z,14.73
2023-03-22T12:10:11.194Z,15.48
2023-03-22T12:12:47.048Z,13.75
2023-03-22T12:15:24.452Z,17.20
2023-03-22T12:18:13.925Z,17.50
2023-03-22T12:20:58.868Z,13.77
2023-03-22T12:23:37.108Z,16.88
2023-03-22T12:26:10.550Z,16.55
2023-03-22T12:28:49.361Z,15.20
2023-03-22T12:31:22.788Z,12.65
2023-03-22T12:34:01.097Z,12.48
2023-03-22T12:36:41.604Z,12.52
2023-03-22T12:39:18.279Z,13.15
2023-03-22T12:41:50.121Z,12.68
2023-03-22T12:44:39.500Z,13.35
2023-03-22T12:47:23.912Z,12.32
2023-03-22T12:50:03.072Z,14.98
2023-03-22T12:52:46.370Z,14.80
2023-03-22T12:55:39.657Z,14.27
2023-03-22T12:58:09.028Z,14.80
2023-03-22T13:00:43.265Z,15.15
2023-03-22T13:03:17.981Z,14.93
2023-03-22T13:08:20.311Z,14.98
2023-03-22T13:11:05.105Z,15.02
2023-03-22T13:13:43.795Z,13.70
2023-03-22T13:16:11.228Z,14.18
2023-03-22T13:18:56.484Z,12.45
2023-03-22T13:21:26.974Z,14.52
2023-03-22T13:24:06.616Z,13.20
2023-03-22T13:26:47.518Z,13.77
2023-03-22T13:29:34.142Z,12.30
2023-03-22T13:32:03.546Z,14.32
2023-03-22T13:34:44.629Z,13.43
2023-03-22T13:37:44.597Z,13.80
2023-03-22T13:40:54.366Z,13.63
2023-03-22T13:43:35.914Z,13.48
2023-03-22T13:46:11.940Z,14.38
2023-03-22T13:48:48.492Z,15.40
2023-03-22T13:51:26.955Z,14.00
2023-03-22T13:54:14.183Z,14.13
2023-03-22T13:56:43.862Z,15.05
2023-03-22T13:59:30.352Z,14.48
2023-03-22T14:02:24.956Z,13.52
2023-03-22T14:05:10.208Z,13.32
2023-03-22T14:07:49.322Z,12.82
2023-03-22T14:10:56.595Z,13.82
2023-03-22T14:13:34.974Z,12.35
2023-03-22T14:16:31.916Z,10.55
2023-03-22T14:19:00.405Z,10.15
2023-03-22T14:21:35.626Z,11.60
